Time;durP1;ratioP1;P1;durP2;ratioP2;P2;SDS_P1;SDS_P2;PMS_P1;PMS_P2;Temp;Humidity;BMP_temperature;BMP_pressure;BME280_temperature;BME280_humidity;BME280_pressure;Samples;Min_cycle;Max_cycle;Signal;HPM_P1;HPM_P2
2023/03/19 00:02:24;;;;;;;3.47;2.70;;;8.40;99.90;;;;;;5049938;28;20532;-52
2023/03/19 00:04:53;;;;;;;4.13;1.80;;;8.40;99.90;;;;;;5040555;28;20532;-53
2023/03/19 00:07:20;;;;;;;3.47;2.33;;;8.50;99.90;;;;;;5037835;28;21047;-51
2023/03/19 00:09:47;;;;;;;3.30;1.50;;;8.40;99.90;;;;;;5051763;28;20517;-51
2023/03/19 00:12:14;;;;;;;2.23;1.93;;;8.40;99.90;;;;;;5032765;28;20486;-51
2023/03/19 00:14:41;;;;;;;3.47;1.90;;;8.30;99.90;;;;;;5032816;28;21036;-51
2023/03/19 00:17:08;;;;;;;2.80;2.30;;;8.10;99.90;;;;;;5032379;28;20498;-53
2023/03/19 00:19:35;;;;;;;1.97;1.80;;;8.30;99.90;;;;;;5031798;28;20517;-51
2023/03/19 00:22:03;;;;;;;2.77;2.00;;;8.10;99.90;;;;;;5036398;28;20478;-51
2023/03/19 00:24:30;;;;;;;1.90;1.77;;;7.90;99.90;;;;;;5052445;28;20472;-52
2023/03/19 00:26:57;;;;;;;2.77;1.97;;;7.90;99.90;;;;;;5051715;28;20897;-51
2023/03/19 00:29:24;;;;;;;2.30;1.50;;;8.00;99.90;;;;;;5052096;28;20507;-51
2023/03/19 00:31:51;;;;;;;2.57;2.10;;;8.10;99.90;;;;;;5051698;28;20534;-51
2023/03/19 00:34:18;;;;;;;2.20;2.00;;;8.20;99.90;;;;;;5051950;28;20831;-51
2023/03/19 00:36:46;;;;;;;2.50;1.63;;;7.90;99.90;;;;;;5052129;28;21003;-51
2023/03/19 00:39:14;;;;;;;3.17;2.40;;;8.00;99.90;;;;;;5051904;28;20477;-51
2023/03/19 00:41:49;;;;;;;1.97;1.80;;;7.90;99.90;;;;;;5051465;28;20470;-51
2023/03/19 00:44:16;;;;;;;2.10;1.70;;;8.10;99.90;;;;;;5052157;28;20445;-51
2023/03/19 00:46:43;;;;;;;2.33;1.83;;;8.10;99.90;;;;;;5051274;28;20768;-51
2023/03/19 00:49:09;;;;;;;2.40;1.93;;;8.20;99.90;;;;;;5051740;28;21016;-51
2023/03/19 00:51:36;;;;;;;2.87;1.40;;;8.30;99.90;;;;;;5051566;28;20536;-51
2023/03/19 00:54:03;;;;;;;3.03;2.30;;;8.20;99.90;;;;;;5051735;28;20828;-53
2023/03/19 00:56:32;;;;;;;2.63;1.53;;;7.80;99.90;;;;;;5051352;28;20477;-51
2023/03/19 00:58:59;;;;;;;4.00;2.10;;;7.30;99.90;;;;;;5051641;28;21075;-51
2023/03/19 01:01:25;;;;;;;2.53;1.97;;;7.00;99.90;;;;;;5051673;28;20470;-53
2023/03/19 01:03:52;;;;;;;6.60;1.80;;;7.40;99.90;;;;;;5051593;28;20538;-51
2023/03/19 01:06:19;;;;;;;3.00;2.60;;;7.50;99.90;;;;;;5051676;28;20445;-51
2023/03/19 01:08:46;;;;;;;2.77;1.70;;;7.80;99.90;;;;;;5046986;28;20497;-51
2023/03/19 01:11:16;;;;;;;3.07;1.90;;;8.00;99.90;;;;;;5030741;28;20467;-51
2023/03/19 01:13:44;;;;;;;4.07;2.23;;;7.90;99.90;;;;;;5030565;28;20446;-51
2023/03/19 01:16:11;;;;;;;5.73;2.43;;;7.80;99.90;;;;;;5031601;28;20529;-53
2023/03/19 01:18:38;;;;;;;2.80;2.37;;;7.90;99.90;;;;;;5041588;28;20548;-52
2023/03/19 01:21:07;;;;;;;2.33;1.47;;;7.90;99.90;;;;;;5051043;28;20481;-51
2023/03/19 01:23:34;;;;;;;2.77;1.70;;;7.60;99.90;;;;;;5051405;28;20449;-51
2023/03/19 01:26:01;;;;;;;2.60;1.67;;;7.50;99.90;;;;;;5051445;28;20532;-52
2023/03/19 01:28:27;;;;;;;2.70;1.67;;;7.60;99.90;;;;;;5051106;28;20548;-52
2023/03/19 01:31:00;;;;;;;2.80;2.60;;;7.70;99.90;;;;;;5051143;28;20477;-51
2023/03/19 01:33:27;;;;;;;4.53;2.60;;;7.70;99.90;;;;;;5050706;28;20822;-53
2023/03/19 01:35:56;;;;;;;3.43;3.03;;;7.60;99.90;;;;;;5051166;28;20902;-52
2023/03/19 01:38:24;;;;;;;3.10;2.70;;;7.70;99.90;;;;;;5050995;28;20558;-53
2023/03/19 01:40:51;;;;;;;3.77;2.77;;;7.70;99.90;;;;;;5051325;28;20487;-51
2023/03/19 01:43:20;;;;;;;3.40;2.30;;;7.80;99.90;;;;;;5051362;28;20525;-52
2023/03/19 01:45:50;;;;;;;6.43;2.67;;;7.70;99.90;;;;;;5051244;28;20528;-50
2023/03/19 01:48:22;;;;;;;4.03;2.93;;;7.70;99.90;;;;;;5050739;28;20513;-51
2023/03/19 01:50:52;;;;;;;4.10;2.40;;;7.70;99.90;;;;;;5051135;28;20526;-53
2023/03/19 01:53:24;;;;;;;2.63;2.10;;;7.70;99.90;;;;;;5050576;28;20481;-52
2023/03/19 01:55:52;;;;;;;2.80;1.90;;;7.50;99.90;;;;;;5050677;28;20537;-51
2023/03/19 01:58:19;;;;;;;2.90;2.30;;;7.20;99.90;;;;;;5049638;28;20996;-51
2023/03/19 02:00:46;;;;;;;2.43;2.07;;;7.30;99.90;;;;;;5050131;28;20525;-53
2023/03/19 02:03:14;;;;;;;4.13;1.60;;;7.50;99.90;;;;;;5050360;28;20480;-51
2023/03/19 02:05:45;;;;;;;3.43;2.10;;;7.40;99.90;;;;;;5049699;28;20469;-54
2023/03/19 02:08:15;;;;;;;2.77;2.30;;;6.80;99.90;;;;;;5050561;28;21047;-50
2023/03/19 02:10:43;;;;;;;3.77;2.60;;;7.00;99.90;;;;;;5049929;28;20472;-51
2023/03/19 02:13:10;;;;;;;2.87;2.20;;;7.10;99.90;;;;;;5049873;28;20525;-52
2023/03/19 02:15:37;;;;;;;2.20;2.00;;;6.90;99.90;;;;;;5049719;28;20532;-52
2023/03/19 02:18:05;;;;;;;1.97;1.77;;;7.10;99.90;;;;;;5049828;28;21030;-51
2023/03/19 02:20:36;;;;;;;2.80;2.17;;;7.30;99.90;;;;;;5049774;28;20893;-51
2023/03/19 02:23:13;;;;;;;2.47;1.77;;;7.40;99.90;;;;;;5045806;28;20525;-52
2023/03/19 02:25:51;;;;;;;2.97;2.03;;;7.40;99.90;;;;;;5051048;28;20540;-52
2023/03/19 02:28:21;;;;;;;2.90;1.60;;;7.50;99.90;;;;;;5047783;28;20531;-51
2023/03/19 02:30:48;;;;;;;2.43;2.20;;;7.60;99.90;;;;;;5037934;28;20948;-53
2023/03/19 02:33:18;;;;;;;6.87;2.60;;;7.50;99.90;;;;;;5049901;28;20468;-50
2023/03/19 02:35:47;;;;;;;2.53;1.80;;;7.40;99.90;;;;;;5050290;28;20882;-50
2023/03/19 02:38:15;;;;;;;2.60;2.37;;;7.30;99.90;;;;;;5050096;28;20523;-50
2023/03/19 02:40:49;;;;;;;2.20;2.00;;;7.40;99.90;;;;;;5050625;28;20923;-51
2023/03/19 02:43:17;;;;;;;2.70;2.33;;;7.50;99.90;;;;;;5050158;28;20877;-50
2023/03/19 02:45:45;;;;;;;1.70;1.60;;;7.50;99.90;;;;;;5050443;28;20529;-50
2023/03/19 02:48:11;;;;;;;2.23;1.90;;;7.20;99.90;;;;;;5050316;28;20511;-51
2023/03/19 02:50:38;;;;;;;3.50;2.00;;;7.20;99.90;;;;;;5050722;28;20879;-50
2023/03/19 02:53:05;;;;;;;3.80;2.47;;;7.20;99.90;;;;;;5050705;28;20513;-51
2023/03/19 02:55:32;;;;;;;5.13;2.17;;;7.30;99.90;;;;;;5051703;28;20442;-50
2023/03/19 02:57:59;;;;;;;3.13;2.27;;;7.50;99.90;;;;;;5051589;28;20552;-51
2023/03/19 03:00:27;;;;;;;2.83;2.50;;;7.50;99.90;;;;;;5051172;28;20556;-52
2023/03/19 03:02:56;;;;;;;3.63;2.50;;;7.20;99.90;;;;;;5050232;28;20473;-51
2023/03/19 03:05:23;;;;;;;3.70;2.73;;;7.10;99.90;;;;;;5031505;28;20531;-51
2023/03/19 03:07:50;;;;;;;5.10;2.00;;;7.00;99.90;;;;;;5038714;28;20494;-52
2023/03/19 03:10:17;;;;;;;3.00;1.80;;;7.10;99.90;;;;;;5054336;28;20441;-51
2023/03/19 03:12:45;;;;;;;2.90;1.90;;;7.20;99.90;;;;;;5054241;28;20441;-51
2023/03/19 03:15:12;;;;;;;2.23;1.40;;;7.20;99.90;;;;;;5053615;28;20541;-52
2023/03/19 03:17:41;;;;;;;3.20;2.50;;;6.80;99.90;;;;;;5054344;28;20504;-50
2023/03/19 03:20:10;;;;;;;2.60;2.13;;;6.40;99.90;;;;;;5054568;28;20908;-51
2023/03/19 03:22:38;;;;;;;3.10;1.83;;;6.50;99.90;;;;;;5054081;28;20500;-52
2023/03/19 03:25:06;;;;;;;2.97;1.70;;;6.60;99.90;;;;;;5055014;28;20476;-54
2023/03/19 03:27:33;;;;;;;4.67;2.17;;;7.00;99.90;;;;;;5053828;28;20502;-52
2023/03/19 03:30:00;;;;;;;2.30;1.73;;;7.20;99.90;;;;;;5054080;28;20659;-51
2023/03/19 03:32:27;;;;;;;3.43;2.50;;;7.30;99.90;;;;;;5053651;28;20481;-51
2023/03/19 03:34:56;;;;;;;9.37;2.90;;;7.20;99.90;;;;;;5054498;28;20511;-51
2023/03/19 03:37:23;;;;;;;4.00;2.50;;;6.80;99.90;;;;;;5055204;28;20945;-50
2023/03/19 03:39:50;;;;;;;3.10;2.03;;;7.00;99.90;;;;;;5054862;28;20506;-52
2023/03/19 03:42:17;;;;;;;3.30;2.13;;;6.70;99.90;;;;;;5054338;28;20453;-53
2023/03/19 03:44:44;;;;;;;2.23;1.73;;;6.80;99.90;;;;;;5054740;28;20532;-50
2023/03/19 03:47:11;;;;;;;2.47;2.27;;;6.90;99.90;;;;;;5054034;28;20503;-51
2023/03/19 03:49:39;;;;;;;3.00;2.27;;;6.60;99.90;;;;;;5054356;28;20449;-50
2023/03/19 03:52:07;;;;;;;6.00;1.90;;;6.60;99.90;;;;;;5054060;28;20528;-53
2023/03/19 03:54:35;;;;;;;1.97;1.77;;;6.90;99.90;;;;;;5054859;28;20446;-52
2023/03/19 03:57:02;;;;;;;4.40;1.80;;;7.10;99.90;;;;;;5054272;28;20470;-52
2023/03/19 03:59:29;;;;;;;1.90;1.67;;;7.10;99.90;;;;;;5053879;28;20481;-53
2023/03/19 04:01:56;;;;;;;3.17;2.87;;;7.10;99.90;;;;;;5053706;28;20773;-52
2023/03/19 04:04:23;;;;;;;4.33;2.87;;;7.10;99.90;;;;;;5053662;28;20497;-52
2023/03/19 04:06:49;;;;;;;3.60;2.47;;;7.00;99.90;;;;;;5053640;28;20470;-50
2023/03/19 04:09:18;;;;;;;4.97;2.67;;;7.00;99.90;;;;;;5052014;28;20537;-55
2023/03/19 04:11:45;;;;;;;3.00;1.83;;;6.80;99.90;;;;;;5033015;28;20442;-51
2023/03/19 04:14:12;;;;;;;3.20;1.90;;;6.70;99.90;;;;;;5047697;28;20899;-53
2023/03/19 04:16:39;;;;;;;4.70;2.30;;;6.80;99.90;;;;;;5053895;28;20520;-52
2023/03/19 04:19:07;;;;;;;2.07;1.87;;;6.90;99.90;;;;;;5053936;28;20473;-52
2023/03/19 04:21:34;;;;;;;2.83;1.70;;;7.00;99.90;;;;;;5052044;28;20477;-50
2023/03/19 04:24:02;;;;;;;1.80;1.70;;;7.10;99.90;;;;;;5053135;28;20484;-51
2023/03/19 04:26:30;;;;;;;2.20;1.50;;;6.90;99.90;;;;;;5052930;28;20445;-51
2023/03/19 04:28:58;;;;;;;4.43;1.60;;;6.90;99.90;;;;;;5053620;28;20462;-51
2023/03/19 04:31:25;;;;;;;1.97;1.77;;;6.90;99.90;;;;;;5053612;28;20489;-50
2023/03/19 04:33:52;;;;;;;21.20;3.20;;;7.00;99.90;;;;;;5054354;28;20846;-50
2023/03/19 04:36:19;;;;;;;3.00;1.70;;;7.10;99.90;;;;;;5053459;28;20829;-51
2023/03/19 04:38:46;;;;;;;3.30;1.67;;;7.10;99.90;;;;;;5052894;28;20540;-50
2023/03/19 04:41:14;;;;;;;1.67;1.40;;;7.00;99.90;;;;;;5052722;28;20473;-51
2023/03/19 04:43:43;;;;;;;2.20;1.70;;;7.20;99.90;;;;;;5053529;28;20529;-50
2023/03/19 04:46:10;;;;;;;2.73;1.90;;;7.10;99.90;;;;;;5052300;28;20500;-51
2023/03/19 04:48:38;;;;;;;5.70;2.00;;;6.90;99.90;;;;;;5053600;28;20820;-51
2023/03/19 04:51:07;;;;;;;2.90;1.67;;;6.60;99.90;;;;;;5053524;28;20481;-51
2023/03/19 04:53:35;;;;;;;3.20;1.97;;;6.60;99.90;;;;;;5053365;28;20445;-50
2023/03/19 04:56:02;;;;;;;7.30;2.03;;;6.80;99.90;;;;;;5053583;28;20448;-51
2023/03/19 04:58:29;;;;;;;3.00;2.23;;;6.70;99.90;;;;;;5053902;28;20468;-52
2023/03/19 05:00:58;;;;;;;2.50;1.77;;;6.90;99.90;;;;;;5053183;28;20466;-50
2023/03/19 05:03:25;;;;;;;2.20;2.00;;;6.80;99.90;;;;;;5053168;28;20532;-51
2023/03/19 05:05:53;;;;;;;5.50;3.10;;;6.90;99.90;;;;;;5053669;28;20489;-50
2023/03/19 05:08:21;;;;;;;3.23;2.73;;;6.90;99.90;;;;;;5053582;28;20552;-51
2023/03/19 05:10:48;;;;;;;3.53;2.80;;;7.00;99.90;;;;;;5052954;28;20470;-51
2023/03/19 05:13:15;;;;;;;3.33;2.80;;;6.80;99.90;;;;;;5036658;28;20991;-51
2023/03/19 05:15:42;;;;;;;3.87;2.87;;;6.60;99.90;;;;;;5039922;28;20537;-52
2023/03/19 05:18:10;;;;;;;5.97;2.40;;;6.50;99.90;;;;;;5053064;28;20465;-50
2023/03/19 05:20:38;;;;;;;3.90;2.77;;;6.50;99.90;;;;;;5052772;28;20557;-51
2023/03/19 05:23:05;;;;;;;4.47;2.90;;;6.40;99.90;;;;;;5052272;28;20449;-51
2023/03/19 05:25:34;;;;;;;2.10;1.80;;;6.30;99.90;;;;;;5051310;28;20441;-53
2023/03/19 05:28:01;;;;;;;2.03;1.90;;;5.90;99.90;;;;;;5050697;28;20889;-51
2023/03/19 05:30:28;;;;;;;7.60;2.30;;;6.10;99.90;;;;;;5051338;28;21027;-51
2023/03/19 05:32:57;;;;;;;3.40;2.23;;;6.40;99.90;;;;;;5051771;28;20952;-50
2023/03/19 05:35:26;;;;;;;3.73;2.03;;;6.60;99.90;;;;;;5052294;28;21118;-50
2023/03/19 05:37:53;;;;;;;3.17;2.07;;;6.70;99.90;;;;;;5052622;28;20504;-51
2023/03/19 05:40:21;;;;;;;2.83;2.30;;;6.70;99.90;;;;;;5052068;28;20529;-50
2023/03/19 05:42:48;;;;;;;3.20;2.37;;;6.60;99.90;;;;;;5052940;28;20470;-51
2023/03/19 05:45:15;;;;;;;4.40;2.30;;;6.50;99.90;;;;;;5052634;28;20940;-52
2023/03/19 05:47:42;;;;;;;1.90;1.70;;;5.90;99.90;;;;;;5052347;28;20462;-50
2023/03/19 05:50:10;;;;;;;4.93;2.23;;;5.80;99.90;;;;;;5052397;28;20484;-52
2023/03/19 05:52:38;;;;;;;3.80;2.10;;;5.70;99.90;;;;;;5052078;28;20453;-53
2023/03/19 05:55:07;;;;;;;4.27;2.00;;;5.80;99.90;;;;;;5051896;28;20469;-53
2023/03/19 05:57:34;;;;;;;4.53;2.57;;;5.90;99.90;;;;;;5052019;28;20560;-52
2023/03/19 06:00:01;;;;;;;2.87;2.43;;;6.10;99.90;;;;;;5052262;28;20473;-52
2023/03/19 06:02:28;;;;;;;3.23;2.80;;;6.20;99.90;;;;;;5052848;28;20535;-53
2023/03/19 06:04:55;;;;;;;4.33;3.07;;;6.10;99.90;;;;;;5052516;28;20484;-51
2023/03/19 06:07:22;;;;;;;4.87;3.33;;;6.30;99.90;;;;;;5052860;28;20477;-52
2023/03/19 06:09:50;;;;;;;3.10;2.80;;;6.40;99.90;;;;;;5052504;28;20473;-51
2023/03/19 06:12:17;;;;;;;4.40;4.00;;;6.50;99.90;;;;;;5051977;28;20483;-51
2023/03/19 06:14:46;;;;;;;3.30;2.53;;;6.60;99.90;;;;;;5052537;28;20536;-52
2023/03/19 06:17:13;;;;;;;3.40;3.10;;;6.60;99.90;;;;;;5052792;28;20469;-52
2023/03/19 06:19:39;;;;;;;2.63;2.20;;;6.40;99.90;;;;;;5051904;28;20536;-50
2023/03/19 06:22:06;;;;;;;5.10;2.10;;;6.20;99.90;;;;;;5051682;28;20533;-51
2023/03/19 06:24:35;;;;;;;3.83;2.60;;;5.60;99.90;;;;;;5037616;28;20442;-51
2023/03/19 06:27:04;;;;;;;3.20;2.47;;;6.00;99.90;;;;;;5052161;28;20556;-51
2023/03/19 06:29:31;;;;;;;3.00;2.50;;;6.30;99.90;;;;;;5052329;28;21003;-52
2023/03/19 06:31:58;;;;;;;2.90;1.93;;;6.50;99.90;;;;;;5052273;28;20504;-52
2023/03/19 06:34:25;;;;;;;1.93;1.60;;;6.50;99.90;;;;;;5052634;28;20449;-52
2023/03/19 06:36:53;;;;;;;2.20;1.90;;;6.50;99.90;;;;;;5052668;28;20441;-52
2023/03/19 06:39:20;;;;;;;2.53;1.70;;;6.70;99.90;;;;;;5049545;28;20442;-51
2023/03/19 06:41:47;;;;;;;3.30;1.70;;;6.50;99.90;;;;;;5049184;28;20573;-52
2023/03/19 06:44:15;;;;;;;5.07;2.60;;;6.30;99.90;;;;;;5036888;28;20499;-53
2023/03/19 06:46:42;;;;;;;2.63;2.30;;;6.10;99.90;;;;;;5049844;28;20541;-51
2023/03/19 06:49:09;;;;;;;3.00;2.27;;;6.20;99.90;;;;;;5052251;28;20524;-51
2023/03/19 06:51:36;;;;;;;6.70;3.47;;;6.30;99.90;;;;;;5056296;28;20520;-52
2023/03/19 06:54:03;;;;;;;2.53;2.13;;;6.40;99.90;;;;;;5047306;28;20441;-53
2023/03/19 06:56:30;;;;;;;2.03;1.83;;;6.40;99.90;;;;;;5042771;28;21249;-53
2023/03/19 06:58:57;;;;;;;3.20;2.90;;;6.50;99.90;;;;;;5044556;28;20545;-51
2023/03/19 07:01:25;;;;;;;2.80;2.50;;;6.60;99.90;;;;;;5040687;28;20512;-52
2023/03/19 07:03:52;;;;;;;2.43;2.03;;;6.80;99.90;;;;;;5051587;28;20529;-52
2023/03/19 07:06:19;;;;;;;2.57;1.87;;;6.80;99.90;;;;;;5035359;28;20504;-51
2023/03/19 07:08:46;;;;;;;3.87;2.57;;;6.90;99.90;;;;;;5049140;28;21049;-51
2023/03/19 07:11:15;;;;;;;3.47;2.00;;;6.90;99.90;;;;;;5048776;28;20504;-52
2023/03/19 07:13:42;;;;;;;3.90;2.80;;;6.80;99.90;;;;;;5034593;28;20446;-52
2023/03/19 07:16:09;;;;;;;7.70;3.10;;;6.10;99.90;;;;;;5049576;28;20452;-52
2023/03/19 07:18:37;;;;;;;7.03;6.03;;;6.30;99.90;;;;;;5054294;28;20470;-51
2023/03/19 07:21:05;;;;;;;3.97;3.10;;;6.40;99.90;;;;;;5045641;28;20561;-53
2023/03/19 07:23:32;;;;;;;4.70;3.37;;;6.60;99.90;;;;;;5034711;28;20505;-51
2023/03/19 07:25:59;;;;;;;4.17;3.40;;;6.80;99.90;;;;;;5034383;28;20908;-53
2023/03/19 07:28:26;;;;;;;4.70;3.83;;;6.90;99.90;;;;;;5053980;28;21044;-52
2023/03/19 07:30:53;;;;;;;6.27;4.90;;;7.00;99.90;;;;;;5053220;28;20485;-51
2023/03/19 07:33:21;;;;;;;7.20;6.50;;;6.60;99.90;;;;;;5054333;28;20488;-51
2023/03/19 07:35:49;;;;;;;7.27;6.57;;;6.20;99.90;;;;;;5048649;28;20516;-55
2023/03/19 07:38:16;;;;;;;12.40;9.17;;;6.20;99.90;;;;;;5043183;28;20561;-53
2023/03/19 07:40:43;;;;;;;6.83;6.23;;;6.50;99.90;;;;;;5044454;28;20910;-52
2023/03/19 07:43:10;;;;;;;6.50;4.67;;;6.50;99.90;;;;;;5046294;28;20533;-52
2023/03/19 07:45:37;;;;;;;5.93;4.83;;;6.30;99.90;;;;;;5043802;28;20526;-51
2023/03/19 07:48:05;;;;;;;3.10;2.47;;;6.50;99.90;;;;;;5049522;28;20476;-51
2023/03/19 07:50:33;;;;;;;1.70;1.60;;;6.70;99.90;;;;;;5045088;28;20452;-51
2023/03/19 07:53:02;;;;;;;2.10;2.00;;;6.90;99.90;;;;;;5040770;28;20475;-52
2023/03/19 07:55:29;;;;;;;1.97;1.77;;;7.20;99.90;;;;;;5041775;28;20442;-54
2023/03/19 07:57:56;;;;;;;2.63;1.93;;;7.40;99.90;;;;;;5043274;28;20529;-50
2023/03/19 08:00:24;;;;;;;3.67;3.37;;;7.50;99.90;;;;;;5047068;28;20442;-51
2023/03/19 08:02:51;;;;;;;5.67;4.70;;;7.60;99.90;;;;;;5040882;28;21080;-51
2023/03/19 08:05:17;;;;;;;6.23;5.63;;;7.60;99.90;;;;;;5041245;28;20887;-52
2023/03/19 08:07:44;;;;;;;10.93;9.80;;;7.60;99.90;;;;;;5042194;28;20536;-51
2023/03/19 08:10:13;;;;;;;7.80;6.33;;;7.70;99.90;;;;;;5047314;28;20521;-51
2023/03/19 08:12:40;;;;;;;4.83;4.33;;;7.70;99.90;;;;;;5042635;28;20492;-50
2023/03/19 08:15:10;;;;;;;5.67;4.50;;;7.80;99.90;;;;;;5048753;28;20438;-52
2023/03/19 08:17:37;;;;;;;3.20;2.90;;;7.90;99.90;;;;;;5043324;28;20453;-50
2023/03/19 08:20:07;;;;;;;6.10;3.80;;;8.00;99.90;;;;;;5046417;28;21071;-50
2023/03/19 08:22:34;;;;;;;5.83;3.83;;;8.10;99.90;;;;;;5050615;28;20560;-50
2023/03/19 08:25:01;;;;;;;4.77;4.00;;;8.30;99.90;;;;;;5051547;28;20637;-51
2023/03/19 08:27:30;;;;;;;8.07;5.33;;;8.30;99.90;;;;;;5048155;28;20552;-52
2023/03/19 08:29:57;;;;;;;9.03;5.60;;;8.40;99.90;;;;;;5047782;28;20940;-51
2023/03/19 08:32:24;;;;;;;4.80;3.67;;;8.40;99.90;;;;;;5047019;28;20480;-52
2023/03/19 08:34:51;;;;;;;4.97;4.00;;;8.50;99.90;;;;;;5046349;28;20529;-50
2023/03/19 08:37:18;;;;;;;6.43;3.50;;;8.40;99.90;;;;;;5047630;28;20554;-50
2023/03/19 08:39:45;;;;;;;4.20;3.17;;;8.40;99.90;;;;;;5042109;28;20454;-51
2023/03/19 08:42:12;;;;;;;4.27;3.23;;;8.50;99.90;;;;;;5040086;28;20472;-51
2023/03/19 08:44:41;;;;;;;4.70;3.40;;;8.60;99.90;;;;;;5042438;28;20526;-51
2023/03/19 08:47:08;;;;;;;3.60;3.00;;;8.70;99.90;;;;;;5045523;28;20501;-51
2023/03/19 08:49:34;;;;;;;2.50;2.10;;;8.80;99.90;;;;;;5042536;28;20469;-51
2023/03/19 08:52:01;;;;;;;2.73;2.37;;;8.80;99.90;;;;;;5042015;28;20455;-53
2023/03/19 08:54:28;;;;;;;2.60;2.30;;;8.80;99.90;;;;;;5048151;28;20529;-51
2023/03/19 08:56:55;;;;;;;4.10;2.20;;;8.90;99.90;;;;;;5041472;28;20883;-51
2023/03/19 08:59:22;;;;;;;3.80;2.30;;;9.00;99.90;;;;;;5044673;28;20474;-52
2023/03/19 09:01:52;;;;;;;4.17;2.60;;;9.00;99.90;;;;;;5049054;28;20511;-51
2023/03/19 09:04:20;;;;;;;3.30;2.60;;;9.10;99.90;;;;;;5042487;28;20526;-50
2023/03/19 09:06:50;;;;;;;2.83;2.27;;;9.20;99.90;;;;;;5044046;28;20443;-51
2023/03/19 09:09:17;;;;;;;3.13;2.57;;;9.30;99.90;;;;;;5044487;28;20456;-50
2023/03/19 09:11:45;;;;;;;2.57;2.37;;;9.30;99.90;;;;;;5041122;28;20443;-51
2023/03/19 09:14:11;;;;;;;4.17;2.10;;;9.40;99.90;;;;;;5049358;28;20440;-50
2023/03/19 09:16:38;;;;;;;2.57;1.77;;;9.50;99.90;;;;;;5050471;28;20562;-52
2023/03/19 09:19:07;;;;;;;4.70;2.17;;;9.60;99.90;;;;;;5044164;28;20866;-51
2023/03/19 09:21:34;;;;;;;2.50;1.87;;;9.60;99.90;;;;;;5039482;28;20448;-51
2023/03/19 09:24:01;;;;;;;2.63;1.70;;;9.80;99.90;;;;;;5044586;28;20843;-52
2023/03/19 09:26:28;;;;;;;1.80;1.63;;;9.90;99.90;;;;;;5039394;28;20875;-51
2023/03/19 09:28:55;;;;;;;4.23;1.97;;;10.10;99.90;;;;;;5043450;28;20929;-51
2023/03/19 09:31:22;;;;;;;3.00;2.00;;;10.10;99.90;;;;;;5047236;28;21010;-50
2023/03/19 09:33:49;;;;;;;3.87;2.20;;;10.30;99.90;;;;;;5047118;28;20509;-51
2023/03/19 09:36:18;;;;;;;2.80;2.60;;;10.40;99.90;;;;;;5046142;28;20452;-51
2023/03/19 09:38:45;;;;;;;4.20;3.10;;;10.50;99.90;;;;;;5042256;28;21062;-50
2023/03/19 09:41:20;;;;;;;6.70;4.07;;;10.70;99.90;;;;;;5041197;28;20451;-53
2023/03/19 09:44:00;;;;;;;9.43;2.50;;;10.90;99.90;;;;;;5038405;28;21002;-51
2023/03/19 09:46:35;;;;;;;4.87;3.57;;;11.70;99.90;;;;;;5039915;28;20479;-52
2023/03/19 09:49:08;;;;;;;3.03;2.40;;;11.40;99.90;;;;;;5045220;28;20539;-51
2023/03/19 09:51:43;;;;;;;2.50;2.17;;;11.90;99.90;;;;;;5046565;28;20537;-51
2023/03/19 09:54:22;;;;;;;3.67;2.10;;;12.00;99.90;;;;;;5047137;28;21183;-50
2023/03/19 09:56:49;;;;;;;2.90;2.60;;;11.70;99.90;;;;;;5040048;28;20493;-51
2023/03/19 09:59:16;;;;;;;2.60;2.33;;;11.70;99.90;;;;;;5026769;28;20542;-51
2023/03/19 10:01:49;;;;;;;3.70;3.30;;;11.80;99.90;;;;;;5027941;28;20900;-52
2023/03/19 10:04:37;;;;;;;3.97;3.00;;;11.90;99.90;;;;;;5042205;28;20445;-51
2023/03/19 10:07:25;;;;;;;3.00;2.70;;;11.80;99.90;;;;;;5047453;28;20465;-51
2023/03/19 10:10:05;;;;;;;3.37;2.50;;;11.70;99.90;;;;;;5027210;28;20548;-51
2023/03/19 10:12:45;;;;;;;3.10;2.77;;;11.70;99.90;;;;;;5037103;28;20452;-52
2023/03/19 10:15:21;;;;;;;4.60;2.70;;;11.80;99.90;;;;;;5046892;28;20535;-50
2023/03/19 10:17:58;;;;;;;5.00;3.07;;;12.30;99.90;;;;;;5046404;28;20904;-51
2023/03/19 10:20:43;;;;;;;4.77;3.00;;;12.60;99.90;;;;;;5050605;28;20525;-51
2023/03/19 10:23:38;;;;;;;3.60;3.23;;;12.70;99.90;;;;;;5050446;28;20465;-53
2023/03/19 10:26:10;;;;;;;7.20;4.77;;;12.70;99.90;;;;;;5048495;28;20532;-52
2023/03/19 10:28:37;;;;;;;3.40;2.93;;;12.90;99.90;;;;;;5046780;28;20476;-51
2023/03/19 10:31:19;;;;;;;4.73;3.87;;;13.20;99.90;;;;;;5042201;28;20454;-51
2023/03/19 10:33:57;;;;;;;5.13;3.40;;;13.20;99.90;;;;;;5037222;28;20449;-51
2023/03/19 10:36:28;;;;;;;4.90;3.00;;;13.00;99.90;;;;;;5038794;28;20834;-51
2023/03/19 10:38:57;;;;;;;5.73;3.10;;;12.90;99.90;;;;;;5041233;28;20642;-51
2023/03/19 10:41:31;;;;;;;5.07;4.03;;;13.00;99.90;;;;;;5040266;28;20451;-53
2023/03/19 10:44:01;;;;;;;3.60;3.20;;;13.00;99.90;;;;;;5039859;28;20571;-51
2023/03/19 10:46:36;;;;;;;3.60;3.20;;;13.10;99.90;;;;;;5038419;28;20468;-51
2023/03/19 10:49:03;;;;;;;3.20;2.90;;;13.20;99.90;;;;;;5041074;28;20483;-52
2023/03/19 10:51:31;;;;;;;3.60;3.07;;;13.30;99.90;;;;;;5039271;28;20470;-52
2023/03/19 10:54:00;;;;;;;5.27;3.00;;;13.40;99.90;;;;;;5039067;28;20515;-51
2023/03/19 10:56:29;;;;;;;4.50;3.60;;;13.40;99.90;;;;;;5043331;28;20531;-54
2023/03/19 10:58:59;;;;;;;4.10;3.40;;;13.60;99.90;;;;;;5040103;28;20881;-51
2023/03/19 11:01:33;;;;;;;4.30;3.43;;;13.40;99.90;;;;;;5043268;28;20962;-52
2023/03/19 11:04:01;;;;;;;12.07;3.60;;;13.60;99.90;;;;;;5048567;28;20509;-53
2023/03/19 11:06:32;;;;;;;4.57;3.10;;;13.70;99.90;;;;;;5042747;28;20445;-52
2023/03/19 11:09:12;;;;;;;4.70;4.30;;;13.70;99.90;;;;;;5047160;28;20527;-51
2023/03/19 11:11:43;;;;;;;4.73;3.50;;;13.70;99.90;;;;;;5042690;28;20436;-51
2023/03/19 11:14:15;;;;;;;7.50;3.70;;;13.80;99.90;;;;;;5048865;28;20473;-51
2023/03/19 11:16:51;;;;;;;4.73;3.47;;;14.00;99.90;;;;;;5046660;28;20483;-54
2023/03/19 11:19:21;;;;;;;5.20;3.40;;;13.90;99.90;;;;;;5039803;28;20868;-51
2023/03/19 11:22:00;;;;;;;4.20;3.40;;;13.90;99.90;;;;;;5039574;28;20496;-54
2023/03/19 11:24:32;;;;;;;5.27;4.00;;;14.00;99.90;;;;;;5042409;28;20526;-52
2023/03/19 11:26:59;;;;;;;4.20;3.80;;;14.20;99.90;;;;;;5042291;28;21012;-51
2023/03/19 11:29:28;;;;;;;3.37;3.07;;;14.30;99.90;;;;;;5035449;28;20510;-51
2023/03/19 11:32:06;;;;;;;3.73;3.30;;;14.10;99.90;;;;;;5046040;28;20472;-51
2023/03/19 11:34:41;;;;;;;7.83;4.40;;;14.10;99.90;;;;;;5047193;28;21703;-51
2023/03/19 11:37:17;;;;;;;4.10;3.10;;;14.00;99.90;;;;;;5039828;28;20465;-51
2023/03/19 11:39:55;;;;;;;6.77;3.20;;;14.20;99.90;;;;;;5043693;28;20482;-51
2023/03/19 11:42:44;;;;;;;4.73;3.70;;;14.40;99.90;;;;;;5047366;28;20481;-51
2023/03/19 11:45:20;;;;;;;6.23;3.00;;;14.20;99.90;;;;;;5050035;28;20492;-51
2023/03/19 11:47:57;;;;;;;3.43;3.13;;;14.20;99.90;;;;;;5049786;28;20493;-51
2023/03/19 11:50:29;;;;;;;4.70;3.67;;;14.30;99.90;;;;;;5047348;28;21075;-51
2023/03/19 11:53:18;;;;;;;4.23;3.10;;;14.50;99.90;;;;;;5048448;28;20979;-51
2023/03/19 11:55:52;;;;;;;7.10;3.13;;;14.40;99.90;;;;;;5044256;28;20445;-52
2023/03/19 11:58:35;;;;;;;4.00;3.17;;;14.30;99.90;;;;;;5044962;28;20476;-51
2023/03/19 12:01:08;;;;;;;5.50;3.47;;;14.50;99.90;;;;;;5041558;28;20884;-52
2023/03/19 12:04:02;;;;;;;5.30;3.17;;;14.50;99.90;;;;;;5048226;28;20564;-52
2023/03/19 12:06:40;;;;;;;4.57;3.40;;;14.50;99.90;;;;;;5044087;28;20484;-51
2023/03/19 12:09:16;;;;;;;4.20;3.60;;;14.50;99.90;;;;;;5047112;28;20968;-53
2023/03/19 12:11:52;;;;;;;5.73;3.43;;;14.60;99.90;;;;;;5040958;28;20521;-51
2023/03/19 12:14:40;;;;;;;3.90;3.17;;;14.60;99.90;;;;;;5040804;28;20852;-52
2023/03/19 12:17:23;;;;;;;4.20;3.00;;;14.60;99.90;;;;;;5038969;28;21054;-51
2023/03/19 12:20:15;;;;;;;3.77;3.03;;;14.50;99.90;;;;;;5040858;28;21004;-51
2023/03/19 12:23:05;;;;;;;3.47;3.17;;;14.70;99.90;;;;;;5040633;28;20481;-51
2023/03/19 12:25:58;;;;;;;4.10;3.27;;;14.50;99.90;;;;;;5039754;28;20482;-51
2023/03/19 12:28:29;;;;;;;3.20;2.90;;;14.50;99.90;;;;;;5040247;28;21019;-52
2023/03/19 12:31:19;;;;;;;4.10;3.43;;;14.80;99.90;;;;;;5045208;28;20461;-51
2023/03/19 12:33:52;;;;;;;7.23;4.57;;;14.90;99.90;;;;;;5038048;28;20454;-51
2023/03/19 12:36:23;;;;;;;3.83;3.33;;;14.80;99.90;;;;;;5048208;28;20477;-51
2023/03/19 12:38:54;;;;;;;3.90;3.40;;;14.90;99.90;;;;;;5047228;28;20495;-51
2023/03/19 12:41:23;;;;;;;5.40;3.57;;;14.80;99.90;;;;;;5041704;28;20533;-51
2023/03/19 12:43:57;;;;;;;4.20;3.70;;;14.90;99.90;;;;;;5043164;28;20831;-52
2023/03/19 12:46:28;;;;;;;4.73;3.03;;;14.90;99.90;;;;;;5047991;28;20460;-51
2023/03/19 12:48:59;;;;;;;5.53;3.30;;;14.90;99.90;;;;;;5038391;28;20947;-51
2023/03/19 12:51:33;;;;;;;6.13;3.57;;;14.90;99.90;;;;;;5041003;28;20474;-53
2023/03/19 12:54:05;;;;;;;4.70;3.60;;;14.90;99.90;;;;;;5038960;28;20512;-51
2023/03/19 12:56:38;;;;;;;6.47;4.40;;;15.00;99.90;;;;;;5041438;28;20499;-51
2023/03/19 12:59:14;;;;;;;3.30;3.00;;;15.00;99.90;;;;;;5040733;28;20449;-52
2023/03/19 13:01:44;;;;;;;3.20;2.90;;;14.90;99.90;;;;;;5039484;28;20438;-52
2023/03/19 13:04:16;;;;;;;5.53;3.80;;;14.90;99.90;;;;;;5037111;28;20485;-54
2023/03/19 13:06:49;;;;;;;3.50;3.10;;;15.10;99.90;;;;;;5041036;28;20445;-53
2023/03/19 13:09:24;;;;;;;4.10;3.53;;;15.10;99.90;;;;;;5039388;28;20450;-51